Accueil
METAR-TAF:

METAR-TAF

Aéroports :

Aéroport de Lyon-Saint-Exupéry

Lyon / Saint Exupéry, France

latitude: 45-44N, longitude: 005-05E, altitude: 248 m

Observation

Le bulletin a été fait il y a 18 minutes, à 02:30 UTC
Vent 6 kt de nord-ouest
Température 2°C
Humidité 75%
Pression 1019 hPa
Visibilité 10 km ou plus
pas de nuages en-dessous de 1500 mètres et pas de cumulonimbus.

METAR: LFLL 170230Z 32006KT CAVOK 02/M02 Q1019 NOSIG

Heure: 04:48 (02:48 UTC)

Prévision

Le bulletin a été fait il y a 3 heures et 48 minutes, à 23:00 UTC
Prévision valable du 17 à 00 UTC au 18 à 06 UTC
Vent 10 kt de nord
Visibilité 10 km ou plus
pas de nuages en-dessous de 1500 mètres et pas de cumulonimbus.

TAF: LFLL 162300Z 1700/1806 35010KT CAVOK

Observations et prévisions météorologiques de plus de 4000 aéroports (messages METAR et TAF).

Les stations disponibles sont représentées par des disques jaunes et rouges sur la carte.

Passer la souris dessus pour voir le nom de la station.

Cliquer dessus pour voir les observations et prévisions météorologiques.

Pour changer de carte: cliquez sur les boutons verts avec une croix noire pour zoomer, sur le bouton vert avec un tiret pour effectuer un zoom arrière, ou sur les flèches vertes pour les cartes adjacentes.


METAR-TAF: